Terminal Aerodrome Forecast
Issued by NWS

Home | Current Version | Previous Version | Text Only | Print | Product List | Glossary On
Versions: 1 2 3 4 5 6 7 8 9 10 11 12 13
000
FTUS43 KOAX 311130
TAFSNY
TAF
KSNY 311130Z 3112/0112 33006KT P6SM OVC040
     FM311800 01010KT 6SM -SHSN BR OVC025
     FM010500 35015G22KT P6SM OVC025=

USA.gov is the U.S. government's official web portal to all federal, state and local government web resources and services.